In Rescue
 
Open Full Screen Window  High Contrast Mode
Wind Gusting 15 knots
11
September 23, 2021 1:57 PM CDT
Weather Information
Wind Direction
  150 °
Wind Speed
  11 kt (13 mph)
Wind Gust
  15 kt (17 mph)
Altimeter
29.92 in
Visibility
10 SM
Temperature
24° C
75° F
Dewpoint
04° C
39° F
Humidity
27%
1hr Rain Fall
00.00 in.
24hr Rain Fall
00.00 in.
Sky Condition
Clear
VFR

METAR KETH 231857Z AUTO 15011G15KT 10SM CLR 24/04 A2992 RMK AO2

FAA Disclaimer: The data displayed is for advisory purposes only and is not to be used for flight planning or operations.